MAPA DE AEROPUERTO

INFORMACIÓN METAR y TAF

METAR FOR LEZG
ADDS - METARS form results

(0914 UTC 07 May 2021)
Data provider http://aviationweather.gov/metar/data/
 
METAR text: LEZG 070900Z 30009KT 260V340 CAVOK 21/11 Q1019
Conditions at: LEZG (ZARAGOZA (MIL/CI, ES) observed 0900 UTC 07 May 2021
Temperature: 21.0°C (70°F)
Dewpoint: 11.0°C (52°F) [RH = 53%]
Pressure (altimeter): 30.09 inches Hg (1019.0 mb)
Winds: from the WNW (300 degrees) at 10 MPH (9 knots; 4.6 m/s)
Visibility: 6 or more miles (10+ km)
Ceiling: ceiling and visibility are OK
Clouds: unknown
Weather: no significant weather observed at this time

METAR text: LEZG 070830Z 30009KT 260V340 CAVOK 20/11 Q1019
Conditions at: LEZG (ZARAGOZA (MIL/CI, ES) observed 0830 UTC 07 May 2021
Temperature: 20.0°C (68°F)
Dewpoint: 11.0°C (52°F) [RH = 56%]
Pressure (altimeter): 30.09 inches Hg (1019.0 mb)
Winds: from the WNW (300 degrees) at 10 MPH (9 knots; 4.6 m/s)
Visibility: 6 or more miles (10+ km)
Ceiling: ceiling and visibility are OK
Clouds: unknown
Weather: no significant weather observed at this time

Forecast for: LEZG (ZARAGOZA (MIL/CI, ES)
Text: TAF LEZG 070500Z 0706/0806 34009KT 9999 FEW060 TX30/0714Z TN15/0706Z
Forecast period: 0600 to 1600 UTC 07 May 2021
Forecast type: FROM: standard forecast or significant change
Winds: from the NNW (340 degrees) at 10 MPH (9 knots; 4.6 m/s)
Visibility: 6 or more miles (10+ km)
Ceiling: at least 12,000 feet AGL
Clouds: few clouds at 6000 feet AGL
Weather: no significant weather forecast for this period
Text: BECMG 0716/0718 10008KT
Forecast period: 1600 UTC 07 May 2021 to 0600 UTC 08 May 2021
Forecast type: BECOMING: Conditions expected to become as follows by 1800 UTC 07 May 2021
Winds: from the E (100 degrees) at 9 MPH (8 knots; 4.1 m/s)
Visibility: 6 or more miles (10+ km)
Ceiling: at least 12,000 feet AGL
Clouds: few clouds at 6000 feet AGL
Weather: no significant weather forecast for this period